sensor_id;sensor_type;location;lat;lon;timestamp;P1;durP1;ratioP1;P2;durP2;ratioP2
54831;SDS011;40730;53.068;6.572;2023-02-15T00:01:24;60.92;;;31.70;;
54831;SDS011;40730;53.068;6.572;2023-02-15T00:03:50;66.88;;;31.48;;
54831;SDS011;40730;53.068;6.572;2023-02-15T00:06:16;66.07;;;30.48;;
54831;SDS011;40730;53.068;6.572;2023-02-15T00:08:42;66.97;;;32.83;;
54831;SDS011;40730;53.068;6.572;2023-02-15T00:11:09;78.00;;;33.15;;
54831;SDS011;40730;53.068;6.572;2023-02-15T00:13:36;72.88;;;32.35;;
54831;SDS011;40730;53.068;6.572;2023-02-15T00:16:06;64.18;;;31.58;;
54831;SDS011;40730;53.068;6.572;2023-02-15T00:18:33;76.63;;;35.53;;
54831;SDS011;40730;53.068;6.572;2023-02-15T00:21:02;63.75;;;31.67;;
54831;SDS011;40730;53.068;6.572;2023-02-15T00:23:30;73.82;;;35.45;;
54831;SDS011;40730;53.068;6.572;2023-02-15T00:26:05;74.00;;;37.47;;
54831;SDS011;40730;53.068;6.572;2023-02-15T00:28:32;81.60;;;39.30;;
54831;SDS011;40730;53.068;6.572;2023-02-15T00:31:02;86.18;;;40.33;;
54831;SDS011;40730;53.068;6.572;2023-02-15T00:33:32;81.97;;;38.70;;
54831;SDS011;40730;53.068;6.572;2023-02-15T00:35:58;109.32;;;46.35;;
54831;SDS011;40730;53.068;6.572;2023-02-15T00:38:25;73.97;;;40.75;;
54831;SDS011;40730;53.068;6.572;2023-02-15T00:40:58;79.20;;;41.05;;
54831;SDS011;40730;53.068;6.572;2023-02-15T00:43:25;116.63;;;46.13;;
54831;SDS011;40730;53.068;6.572;2023-02-15T00:45:52;125.88;;;47.45;;
54831;SDS011;40730;53.068;6.572;2023-02-15T00:48:17;101.03;;;47.72;;
54831;SDS011;40730;53.068;6.572;2023-02-15T00:50:45;89.80;;;42.42;;
54831;SDS011;40730;53.068;6.572;2023-02-15T00:53:14;121.00;;;46.15;;
54831;SDS011;40730;53.068;6.572;2023-02-15T00:55:39;119.10;;;44.20;;
54831;SDS011;40730;53.068;6.572;2023-02-15T00:58:06;94.88;;;41.95;;
54831;SDS011;40730;53.068;6.572;2023-02-15T01:00:32;95.80;;;43.42;;
54831;SDS011;40730;53.068;6.572;2023-02-15T01:02:58;115.50;;;45.60;;
54831;SDS011;40730;53.068;6.572;2023-02-15T01:05:23;140.48;;;46.05;;
54831;SDS011;40730;53.068;6.572;2023-02-15T01:07:49;90.78;;;42.00;;
54831;SDS011;40730;53.068;6.572;2023-02-15T01:10:14;88.68;;;41.60;;
54831;SDS011;40730;53.068;6.572;2023-02-15T01:12:40;99.75;;;44.60;;
54831;SDS011;40730;53.068;6.572;2023-02-15T01:15:06;82.18;;;41.80;;
54831;SDS011;40730;53.068;6.572;2023-02-15T01:17:32;70.90;;;38.50;;
54831;SDS011;40730;53.068;6.572;2023-02-15T01:19:57;91.32;;;42.58;;
54831;SDS011;40730;53.068;6.572;2023-02-15T01:22:24;95.45;;;43.55;;
54831;SDS011;40730;53.068;6.572;2023-02-15T01:24:50;76.20;;;39.47;;
54831;SDS011;40730;53.068;6.572;2023-02-15T01:27:16;78.20;;;39.50;;
54831;SDS011;40730;53.068;6.572;2023-02-15T01:29:41;85.47;;;40.65;;
54831;SDS011;40730;53.068;6.572;2023-02-15T01:32:07;70.60;;;36.03;;
54831;SDS011;40730;53.068;6.572;2023-02-15T01:34:33;72.57;;;38.72;;
54831;SDS011;40730;53.068;6.572;2023-02-15T01:36:58;78.57;;;37.70;;
54831;SDS011;40730;53.068;6.572;2023-02-15T01:39:24;82.45;;;39.08;;
54831;SDS011;40730;53.068;6.572;2023-02-15T01:41:49;93.13;;;41.25;;
54831;SDS011;40730;53.068;6.572;2023-02-15T01:49:51;63.85;;;34.75;;
54831;SDS011;40730;53.068;6.572;2023-02-15T01:52:25;66.57;;;34.90;;
54831;SDS011;40730;53.068;6.572;2023-02-15T01:54:51;69.70;;;36.10;;
54831;SDS011;40730;53.068;6.572;2023-02-15T01:57:18;82.57;;;38.53;;
54831;SDS011;40730;53.068;6.572;2023-02-15T01:59:48;68.78;;;35.90;;
54831;SDS011;40730;53.068;6.572;2023-02-15T02:02:18;73.25;;;36.50;;
54831;SDS011;40730;53.068;6.572;2023-02-15T02:04:49;73.35;;;35.88;;
54831;SDS011;40730;53.068;6.572;2023-02-15T02:07:17;77.22;;;39.97;;
54831;SDS011;40730;53.068;6.572;2023-02-15T02:09:45;92.65;;;44.90;;
54831;SDS011;40730;53.068;6.572;2023-02-15T02:12:11;80.93;;;40.15;;
54831;SDS011;40730;53.068;6.572;2023-02-15T02:14:37;87.68;;;39.80;;
54831;SDS011;40730;53.068;6.572;2023-02-15T02:17:07;77.85;;;38.95;;
54831;SDS011;40730;53.068;6.572;2023-02-15T02:30:45;69.00;;;37.50;;
54831;SDS011;40730;53.068;6.572;2023-02-15T02:38:55;75.57;;;41.05;;
54831;SDS011;40730;53.068;6.572;2023-02-15T02:49:16;70.38;;;35.58;;
54831;SDS011;40730;53.068;6.572;2023-02-15T02:51:42;64.68;;;35.38;;
54831;SDS011;40730;53.068;6.572;2023-02-15T02:54:07;84.07;;;41.78;;
54831;SDS011;40730;53.068;6.572;2023-02-15T02:56:35;62.10;;;32.58;;
54831;SDS011;40730;53.068;6.572;2023-02-15T02:59:20;63.22;;;32.90;;
54831;SDS011;40730;53.068;6.572;2023-02-15T03:01:58;70.97;;;38.28;;
54831;SDS011;40730;53.068;6.572;2023-02-15T03:04:34;91.82;;;44.00;;
54831;SDS011;40730;53.068;6.572;2023-02-15T03:07:04;93.45;;;44.58;;
54831;SDS011;40730;53.068;6.572;2023-02-15T03:12:06;88.03;;;44.33;;
54831;SDS011;40730;53.068;6.572;2023-02-15T03:14:35;84.38;;;41.85;;
54831;SDS011;40730;53.068;6.572;2023-02-15T03:17:01;81.22;;;42.35;;
54831;SDS011;40730;53.068;6.572;2023-02-15T03:19:32;86.85;;;44.28;;
54831;SDS011;40730;53.068;6.572;2023-02-15T03:22:03;80.05;;;43.08;;
54831;SDS011;40730;53.068;6.572;2023-02-15T03:24:47;86.40;;;44.35;;
54831;SDS011;40730;53.068;6.572;2023-02-15T03:27:38;86.07;;;44.10;;
54831;SDS011;40730;53.068;6.572;2023-02-15T03:30:08;79.82;;;41.67;;
54831;SDS011;40730;53.068;6.572;2023-02-15T03:32:35;81.32;;;42.92;;
54831;SDS011;40730;53.068;6.572;2023-02-15T03:35:04;78.20;;;42.10;;
54831;SDS011;40730;53.068;6.572;2023-02-15T03:37:38;89.18;;;45.85;;
54831;SDS011;40730;53.068;6.572;2023-02-15T03:43:11;82.53;;;42.90;;
54831;SDS011;40730;53.068;6.572;2023-02-15T03:45:42;83.13;;;43.05;;
54831;SDS011;40730;53.068;6.572;2023-02-15T03:49:03;83.32;;;43.85;;
54831;SDS011;40730;53.068;6.572;2023-02-15T03:51:13;94.30;;;46.95;;
54831;SDS011;40730;53.068;6.572;2023-02-15T03:54:09;90.78;;;43.20;;
54831;SDS011;40730;53.068;6.572;2023-02-15T03:57:09;100.78;;;49.45;;
54831;SDS011;40730;53.068;6.572;2023-02-15T03:59:59;113.80;;;53.20;;
54831;SDS011;40730;53.068;6.572;2023-02-15T04:05:22;117.03;;;54.67;;
54831;SDS011;40730;53.068;6.572;2023-02-15T04:07:47;93.72;;;49.72;;
54831;SDS011;40730;53.068;6.572;2023-02-15T04:10:13;93.38;;;49.17;;
54831;SDS011;40730;53.068;6.572;2023-02-15T04:12:57;105.00;;;51.47;;
54831;SDS011;40730;53.068;6.572;2023-02-15T04:15:23;91.00;;;49.30;;
54831;SDS011;40730;53.068;6.572;2023-02-15T04:18:07;90.32;;;46.75;;
54831;SDS011;40730;53.068;6.572;2023-02-15T04:20:32;88.90;;;50.00;;
54831;SDS011;40730;53.068;6.572;2023-02-15T04:23:17;95.60;;;49.63;;
54831;SDS011;40730;53.068;6.572;2023-02-15T04:26:04;102.63;;;51.33;;
54831;SDS011;40730;53.068;6.572;2023-02-15T04:28:30;95.03;;;49.58;;
54831;SDS011;40730;53.068;6.572;2023-02-15T04:30:56;101.78;;;53.60;;
54831;SDS011;40730;53.068;6.572;2023-02-15T04:33:22;97.88;;;50.85;;
54831;SDS011;40730;53.068;6.572;2023-02-15T04:35:47;93.88;;;50.15;;
54831;SDS011;40730;53.068;6.572;2023-02-15T04:38:13;84.65;;;47.83;;
54831;SDS011;40730;53.068;6.572;2023-02-15T04:40:38;102.00;;;51.03;;
54831;SDS011;40730;53.068;6.572;2023-02-15T04:43:04;156.75;;;66.50;;
54831;SDS011;40730;53.068;6.572;2023-02-15T04:45:29;174.80;;;69.53;;
54831;SDS011;40730;53.068;6.572;2023-02-15T04:47:55;230.90;;;78.15;;
54831;SDS011;40730;53.068;6.572;2023-02-15T04:50:21;239.18;;;80.30;;
54831;SDS011;40730;53.068;6.572;2023-02-15T04:52:46;548.75;;;117.95;;
54831;SDS011;40730;53.068;6.572;2023-02-15T04:55:12;272.50;;;91.32;;
54831;SDS011;40730;53.068;6.572;2023-02-15T04:57:39;256.40;;;86.30;;
54831;SDS011;40730;53.068;6.572;2023-02-15T05:00:04;271.17;;;86.97;;
54831;SDS011;40730;53.068;6.572;2023-02-15T05:02:31;224.38;;;83.63;;
54831;SDS011;40730;53.068;6.572;2023-02-15T05:04:56;249.35;;;88.60;;
54831;SDS011;40730;53.068;6.572;2023-02-15T05:07:22;283.65;;;94.25;;
54831;SDS011;40730;53.068;6.572;2023-02-15T05:09:48;299.63;;;99.70;;
54831;SDS011;40730;53.068;6.572;2023-02-15T05:12:13;310.45;;;99.13;;
54831;SDS011;40730;53.068;6.572;2023-02-15T05:14:39;380.48;;;112.88;;
54831;SDS011;40730;53.068;6.572;2023-02-15T05:17:04;413.08;;;119.45;;
54831;SDS011;40730;53.068;6.572;2023-02-15T05:19:30;455.50;;;119.43;;
54831;SDS011;40730;53.068;6.572;2023-02-15T05:21:56;837.97;;;151.65;;
54831;SDS011;40730;53.068;6.572;2023-02-15T05:24:21;910.92;;;169.90;;
54831;SDS011;40730;53.068;6.572;2023-02-15T05:27:06;1141.22;;;187.48;;
54831;SDS011;40730;53.068;6.572;2023-02-15T05:29:51;1194.27;;;187.17;;
54831;SDS011;40730;53.068;6.572;2023-02-15T05:32:17;726.53;;;142.00;;
54831;SDS011;40730;53.068;6.572;2023-02-15T05:34:42;1171.60;;;178.50;;
54831;SDS011;40730;53.068;6.572;2023-02-15T05:37:08;1379.82;;;203.88;;
54831;SDS011;40730;53.068;6.572;2023-02-15T05:39:33;1014.95;;;173.30;;
54831;SDS011;40730;53.068;6.572;2023-02-15T05:41:59;814.35;;;150.18;;
54831;SDS011;40730;53.068;6.572;2023-02-15T05:44:25;679.30;;;133.82;;
54831;SDS011;40730;53.068;6.572;2023-02-15T05:46:50;774.70;;;146.65;;
54831;SDS011;40730;53.068;6.572;2023-02-15T05:49:16;846.08;;;156.88;;
54831;SDS011;40730;53.068;6.572;2023-02-15T05:51:42;576.47;;;130.88;;
54831;SDS011;40730;53.068;6.572;2023-02-15T05:54:07;693.47;;;137.95;;
54831;SDS011;40730;53.068;6.572;2023-02-15T05:56:33;907.72;;;163.38;;
54831;SDS011;40730;53.068;6.572;2023-02-15T05:58:58;807.92;;;159.00;;
54831;SDS011;40730;53.068;6.572;2023-02-15T06:01:24;760.05;;;155.77;;
54831;SDS011;40730;53.068;6.572;2023-02-15T06:03:50;575.20;;;133.68;;
54831;SDS011;40730;53.068;6.572;2023-02-15T06:06:16;488.77;;;123.35;;
54831;SDS011;40730;53.068;6.572;2023-02-15T06:08:42;695.85;;;145.00;;
54831;SDS011;40730;53.068;6.572;2023-02-15T06:11:08;415.15;;;117.38;;
54831;SDS011;40730;53.068;6.572;2023-02-15T06:13:34;467.42;;;128.00;;
54831;SDS011;40730;53.068;6.572;2023-02-15T06:16:00;485.20;;;127.30;;
54831;SDS011;40730;53.068;6.572;2023-02-15T06:18:26;364.45;;;115.00;;
54831;SDS011;40730;53.068;6.572;2023-02-15T06:20:51;415.70;;;122.97;;
54831;SDS011;40730;53.068;6.572;2023-02-15T06:23:17;336.85;;;112.03;;
54831;SDS011;40730;53.068;6.572;2023-02-15T06:25:44;330.27;;;110.15;;
54831;SDS011;40730;53.068;6.572;2023-02-15T06:28:10;302.88;;;104.57;;
54831;SDS011;40730;53.068;6.572;2023-02-15T06:30:36;287.67;;;101.85;;
54831;SDS011;40730;53.068;6.572;2023-02-15T06:33:01;276.27;;;100.57;;
54831;SDS011;40730;53.068;6.572;2023-02-15T06:35:27;306.98;;;106.75;;
54831;SDS011;40730;53.068;6.572;2023-02-15T06:37:53;263.25;;;99.72;;
54831;SDS011;40730;53.068;6.572;2023-02-15T06:40:18;275.63;;;96.68;;
54831;SDS011;40730;53.068;6.572;2023-02-15T06:42:44;264.90;;;100.43;;
54831;SDS011;40730;53.068;6.572;2023-02-15T06:45:10;274.80;;;101.50;;
54831;SDS011;40730;53.068;6.572;2023-02-15T06:47:36;259.52;;;99.32;;
54831;SDS011;40730;53.068;6.572;2023-02-15T06:50:02;263.70;;;99.22;;
54831;SDS011;40730;53.068;6.572;2023-02-15T06:52:32;261.90;;;96.65;;
54831;SDS011;40730;53.068;6.572;2023-02-15T06:54:58;260.90;;;99.32;;
54831;SDS011;40730;53.068;6.572;2023-02-15T06:57:23;259.92;;;95.55;;
54831;SDS011;40730;53.068;6.572;2023-02-15T06:59:49;250.32;;;96.38;;
54831;SDS011;40730;53.068;6.572;2023-02-15T07:02:15;236.77;;;89.93;;
54831;SDS011;40730;53.068;6.572;2023-02-15T07:04:40;233.95;;;92.70;;
54831;SDS011;40730;53.068;6.572;2023-02-15T07:07:09;258.65;;;93.47;;
54831;SDS011;40730;53.068;6.572;2023-02-15T07:09:36;235.88;;;89.65;;
54831;SDS011;40730;53.068;6.572;2023-02-15T07:12:02;226.02;;;86.53;;
54831;SDS011;40730;53.068;6.572;2023-02-15T07:14:46;213.02;;;84.78;;
54831;SDS011;40730;53.068;6.572;2023-02-15T07:17:12;218.70;;;87.68;;
54831;SDS011;40730;53.068;6.572;2023-02-15T07:19:37;217.02;;;87.00;;
54831;SDS011;40730;53.068;6.572;2023-02-15T07:22:03;220.10;;;89.78;;
54831;SDS011;40730;53.068;6.572;2023-02-15T07:24:30;220.40;;;89.05;;
54831;SDS011;40730;53.068;6.572;2023-02-15T07:26:56;213.35;;;88.50;;
54831;SDS011;40730;53.068;6.572;2023-02-15T07:29:22;221.95;;;88.40;;
54831;SDS011;40730;53.068;6.572;2023-02-15T07:31:48;192.27;;;80.10;;
54831;SDS011;40730;53.068;6.572;2023-02-15T07:34:13;202.90;;;85.15;;
54831;SDS011;40730;53.068;6.572;2023-02-15T07:36:39;200.40;;;83.75;;
54831;SDS011;40730;53.068;6.572;2023-02-15T07:39:05;206.20;;;84.93;;
54831;SDS011;40730;53.068;6.572;2023-02-15T07:41:30;209.75;;;88.30;;
54831;SDS011;40730;53.068;6.572;2023-02-15T07:43:56;198.25;;;83.07;;
54831;SDS011;40730;53.068;6.572;2023-02-15T07:46:21;172.00;;;78.72;;
54831;SDS011;40730;53.068;6.572;2023-02-15T07:48:47;197.98;;;82.50;;
54831;SDS011;40730;53.068;6.572;2023-02-15T07:51:13;185.45;;;79.93;;
54831;SDS011;40730;53.068;6.572;2023-02-15T07:53:39;184.45;;;81.38;;
54831;SDS011;40730;53.068;6.572;2023-02-15T07:56:07;174.77;;;77.38;;
54831;SDS011;40730;53.068;6.572;2023-02-15T07:58:35;170.05;;;77.97;;
54831;SDS011;40730;53.068;6.572;2023-02-15T08:01:17;177.07;;;77.65;;
54831;SDS011;40730;53.068;6.572;2023-02-15T08:03:44;172.40;;;75.25;;
54831;SDS011;40730;53.068;6.572;2023-02-15T08:06:09;171.27;;;74.60;;
54831;SDS011;40730;53.068;6.572;2023-02-15T08:08:38;174.35;;;75.30;;
54831;SDS011;40730;53.068;6.572;2023-02-15T08:11:06;172.93;;;74.68;;
54831;SDS011;40730;53.068;6.572;2023-02-15T08:16:38;150.15;;;70.50;;
54831;SDS011;40730;53.068;6.572;2023-02-15T08:21:36;148.18;;;71.05;;
54831;SDS011;40730;53.068;6.572;2023-02-15T08:24:04;138.98;;;69.03;;
54831;SDS011;40730;53.068;6.572;2023-02-15T08:26:31;131.75;;;62.70;;
54831;SDS011;40730;53.068;6.572;2023-02-15T08:28:59;124.32;;;61.72;;
54831;SDS011;40730;53.068;6.572;2023-02-15T08:31:26;112.63;;;58.05;;
54831;SDS011;40730;53.068;6.572;2023-02-15T08:33:52;105.03;;;57.08;;
54831;SDS011;40730;53.068;6.572;2023-02-15T08:36:20;91.45;;;52.20;;
54831;SDS011;40730;53.068;6.572;2023-02-15T08:38:48;97.18;;;51.72;;
54831;SDS011;40730;53.068;6.572;2023-02-15T08:43:41;81.75;;;45.88;;
54831;SDS011;40730;53.068;6.572;2023-02-15T08:46:08;82.07;;;47.60;;
54831;SDS011;40730;53.068;6.572;2023-02-15T08:48:36;63.90;;;39.45;;
54831;SDS011;40730;53.068;6.572;2023-02-15T08:53:36;61.83;;;39.38;;
54831;SDS011;40730;53.068;6.572;2023-02-15T08:56:02;55.58;;;34.78;;
54831;SDS011;40730;53.068;6.572;2023-02-15T08:58:29;53.30;;;33.50;;
54831;SDS011;40730;53.068;6.572;2023-02-15T09:00:55;39.28;;;27.65;;
54831;SDS011;40730;53.068;6.572;2023-02-15T09:03:22;43.72;;;28.13;;
54831;SDS011;40730;53.068;6.572;2023-02-15T09:05:48;41.55;;;26.92;;
54831;SDS011;40730;53.068;6.572;2023-02-15T09:08:14;39.83;;;26.90;;
54831;SDS011;40730;53.068;6.572;2023-02-15T09:10:40;41.78;;;27.33;;
54831;SDS011;40730;53.068;6.572;2023-02-15T09:13:05;42.67;;;29.05;;
54831;SDS011;40730;53.068;6.572;2023-02-15T09:15:31;40.85;;;26.67;;
54831;SDS011;40730;53.068;6.572;2023-02-15T09:17:56;40.63;;;26.42;;
54831;SDS011;40730;53.068;6.572;2023-02-15T09:20:26;42.75;;;27.48;;
54831;SDS011;40730;53.068;6.572;2023-02-15T09:22:53;43.60;;;28.08;;
54831;SDS011;40730;53.068;6.572;2023-02-15T09:25:19;44.17;;;29.05;;
54831;SDS011;40730;53.068;6.572;2023-02-15T09:27:45;43.17;;;28.05;;
54831;SDS011;40730;53.068;6.572;2023-02-15T09:30:10;43.13;;;29.27;;
54831;SDS011;40730;53.068;6.572;2023-02-15T09:32:36;46.70;;;29.42;;
54831;SDS011;40730;53.068;6.572;2023-02-15T09:35:02;46.83;;;29.95;;
54831;SDS011;40730;53.068;6.572;2023-02-15T09:37:29;49.05;;;29.58;;
54831;SDS011;40730;53.068;6.572;2023-02-15T09:39:56;45.92;;;29.88;;
54831;SDS011;40730;53.068;6.572;2023-02-15T09:50:53;43.35;;;27.80;;
54831;SDS011;40730;53.068;6.572;2023-02-15T09:56:24;48.38;;;31.45;;
54831;SDS011;40730;53.068;6.572;2023-02-15T09:58:57;47.95;;;30.42;;
54831;SDS011;40730;53.068;6.572;2023-02-15T10:07:00;46.78;;;28.70;;
54831;SDS011;40730;53.068;6.572;2023-02-15T10:09:49;47.10;;;28.77;;
54831;SDS011;40730;53.068;6.572;2023-02-15T10:26:00;43.58;;;28.38;;
54831;SDS011;40730;53.068;6.572;2023-02-15T10:28:38;45.70;;;29.38;;
54831;SDS011;40730;53.068;6.572;2023-02-15T10:31:27;45.80;;;30.00;;
54831;SDS011;40730;53.068;6.572;2023-02-15T10:34:17;44.78;;;28.65;;
54831;SDS011;40730;53.068;6.572;2023-02-15T10:36:57;44.78;;;30.77;;
54831;SDS011;40730;53.068;6.572;2023-02-15T10:39:52;41.63;;;28.05;;
54831;SDS011;40730;53.068;6.572;2023-02-15T10:42:46;46.30;;;28.73;;
54831;SDS011;40730;53.068;6.572;2023-02-15T10:50:47;43.42;;;25.73;;
54831;SDS011;40730;53.068;6.572;2023-02-15T10:56:24;46.83;;;27.17;;
54831;SDS011;40730;53.068;6.572;2023-02-15T10:59:35;37.50;;;26.20;;
54831;SDS011;40730;53.068;6.572;2023-02-15T11:02:10;39.88;;;26.30;;
54831;SDS011;40730;53.068;6.572;2023-02-15T11:04:53;41.65;;;27.42;;
54831;SDS011;40730;53.068;6.572;2023-02-15T11:07:33;40.30;;;26.90;;
54831;SDS011;40730;53.068;6.572;2023-02-15T11:10:24;41.42;;;26.10;;
54831;SDS011;40730;53.068;6.572;2023-02-15T11:12:51;38.85;;;25.45;;
54831;SDS011;40730;53.068;6.572;2023-02-15T11:15:22;38.15;;;25.77;;
54831;SDS011;40730;53.068;6.572;2023-02-15T11:18:01;37.53;;;25.08;;
54831;SDS011;40730;53.068;6.572;2023-02-15T11:20:55;35.38;;;25.58;;
54831;SDS011;40730;53.068;6.572;2023-02-15T11:23:29;33.47;;;24.35;;
54831;SDS011;40730;53.068;6.572;2023-02-15T11:26:01;37.75;;;25.20;;
54831;SDS011;40730;53.068;6.572;2023-02-15T11:28:39;36.58;;;24.83;;
54831;SDS011;40730;53.068;6.572;2023-02-15T11:31:22;35.15;;;25.52;;
54831;SDS011;40730;53.068;6.572;2023-02-15T11:36:45;38.67;;;25.20;;
54831;SDS011;40730;53.068;6.572;2023-02-15T11:39:17;34.58;;;24.20;;
54831;SDS011;40730;53.068;6.572;2023-02-15T11:41:46;39.80;;;24.40;;
54831;SDS011;40730;53.068;6.572;2023-02-15T11:44:21;35.05;;;23.52;;
54831;SDS011;40730;53.068;6.572;2023-02-15T11:46:52;36.20;;;24.67;;
54831;SDS011;40730;53.068;6.572;2023-02-15T11:49:22;36.13;;;23.80;;
54831;SDS011;40730;53.068;6.572;2023-02-15T11:51:56;36.20;;;24.23;;
54831;SDS011;40730;53.068;6.572;2023-02-15T11:54:27;34.72;;;23.15;;
54831;SDS011;40730;53.068;6.572;2023-02-15T11:56:56;37.17;;;24.40;;
54831;SDS011;40730;53.068;6.572;2023-02-15T11:59:29;38.15;;;26.05;;
54831;SDS011;40730;53.068;6.572;2023-02-15T12:02:00;36.25;;;24.48;;
54831;SDS011;40730;53.068;6.572;2023-02-15T12:09:46;38.13;;;25.98;;
54831;SDS011;40730;53.068;6.572;2023-02-15T12:12:24;37.47;;;26.42;;
54831;SDS011;40730;53.068;6.572;2023-02-15T12:14:58;37.15;;;26.50;;
54831;SDS011;40730;53.068;6.572;2023-02-15T12:17:29;36.88;;;26.55;;
54831;SDS011;40730;53.068;6.572;2023-02-15T12:20:03;38.90;;;27.35;;
54831;SDS011;40730;53.068;6.572;2023-02-15T12:26:35;41.10;;;26.92;;
54831;SDS011;40730;53.068;6.572;2023-02-15T12:29:26;44.63;;;30.73;;
54831;SDS011;40730;53.068;6.572;2023-02-15T12:31:55;39.50;;;29.48;;
54831;SDS011;40730;53.068;6.572;2023-02-15T12:34:22;44.97;;;30.70;;
54831;SDS011;40730;53.068;6.572;2023-02-15T12:36:53;41.88;;;29.33;;
54831;SDS011;40730;53.068;6.572;2023-02-15T12:39:32;49.20;;;30.23;;
54831;SDS011;40730;53.068;6.572;2023-02-15T12:45:40;42.13;;;28.70;;
54831;SDS011;40730;53.068;6.572;2023-02-15T12:48:38;39.38;;;28.80;;
54831;SDS011;40730;53.068;6.572;2023-02-15T12:51:17;39.83;;;28.15;;
54831;SDS011;40730;53.068;6.572;2023-02-15T12:53:55;39.80;;;28.08;;
54831;SDS011;40730;53.068;6.572;2023-02-15T13:00:30;39.58;;;28.90;;
54831;SDS011;40730;53.068;6.572;2023-02-15T13:03:21;43.38;;;28.63;;
54831;SDS011;40730;53.068;6.572;2023-02-15T13:05:51;41.75;;;27.27;;
54831;SDS011;40730;53.068;6.572;2023-02-15T13:09:04;41.42;;;27.05;;
54831;SDS011;40730;53.068;6.572;2023-02-15T13:12:20;41.40;;;27.45;;
54831;SDS011;40730;53.068;6.572;2023-02-15T13:19:28;42.17;;;26.95;;
54831;SDS011;40730;53.068;6.572;2023-02-15T13:23:04;46.25;;;27.88;;
54831;SDS011;40730;53.068;6.572;2023-02-15T13:25:39;39.35;;;26.70;;
54831;SDS011;40730;53.068;6.572;2023-02-15T13:28:42;35.65;;;24.35;;
54831;SDS011;40730;53.068;6.572;2023-02-15T13:32:23;36.88;;;23.25;;
54831;SDS011;40730;53.068;6.572;2023-02-15T13:35:20;37.88;;;23.38;;
54831;SDS011;40730;53.068;6.572;2023-02-15T13:40:55;41.42;;;24.58;;
54831;SDS011;40730;53.068;6.572;2023-02-15T13:57:27;40.25;;;24.35;;
54831;SDS011;40730;53.068;6.572;2023-02-15T14:13:40;36.92;;;24.73;;
54831;SDS011;40730;53.068;6.572;2023-02-15T14:27:12;40.72;;;24.25;;
54831;SDS011;40730;53.068;6.572;2023-02-15T14:30:13;36.95;;;24.77;;
54831;SDS011;40730;53.068;6.572;2023-02-15T14:33:17;42.00;;;25.42;;
54831;SDS011;40730;53.068;6.572;2023-02-15T14:36:43;35.97;;;24.02;;
54831;SDS011;40730;53.068;6.572;2023-02-15T14:45:54;42.70;;;24.58;;
54831;SDS011;40730;53.068;6.572;2023-02-15T14:49:27;40.28;;;24.35;;
54831;SDS011;40730;53.068;6.572;2023-02-15T14:52:32;38.28;;;25.13;;
54831;SDS011;40730;53.068;6.572;2023-02-15T15:03:43;42.00;;;26.13;;
54831;SDS011;40730;53.068;6.572;2023-02-15T15:07:42;42.95;;;26.65;;
54831;SDS011;40730;53.068;6.572;2023-02-15T15:11:46;40.10;;;25.33;;
54831;SDS011;40730;53.068;6.572;2023-02-15T15:18:07;43.85;;;26.13;;
54831;SDS011;40730;53.068;6.572;2023-02-15T15:21:00;45.38;;;25.73;;
54831;SDS011;40730;53.068;6.572;2023-02-15T15:31:43;44.40;;;26.67;;
54831;SDS011;40730;53.068;6.572;2023-02-15T15:34:51;40.08;;;26.30;;
54831;SDS011;40730;53.068;6.572;2023-02-15T15:51:20;38.97;;;25.15;;
54831;SDS011;40730;53.068;6.572;2023-02-15T15:54:15;50.58;;;28.92;;
54831;SDS011;40730;53.068;6.572;2023-02-15T15:57:00;40.40;;;25.52;;
54831;SDS011;40730;53.068;6.572;2023-02-15T15:59:38;42.60;;;25.20;;
54831;SDS011;40730;53.068;6.572;2023-02-15T16:02:26;41.65;;;26.77;;
54831;SDS011;40730;53.068;6.572;2023-02-15T16:05:39;43.20;;;24.98;;
54831;SDS011;40730;53.068;6.572;2023-02-15T16:08:39;42.60;;;25.33;;
54831;SDS011;40730;53.068;6.572;2023-02-15T16:11:26;43.30;;;24.65;;
54831;SDS011;40730;53.068;6.572;2023-02-15T16:14:26;41.22;;;24.40;;
54831;SDS011;40730;53.068;6.572;2023-02-15T16:27:41;39.70;;;23.50;;
54831;SDS011;40730;53.068;6.572;2023-02-15T16:30:34;37.97;;;23.00;;
54831;SDS011;40730;53.068;6.572;2023-02-15T16:33:34;41.75;;;24.77;;
54831;SDS011;40730;53.068;6.572;2023-02-15T16:40:55;40.63;;;25.42;;
54831;SDS011;40730;53.068;6.572;2023-02-15T16:44:09;49.65;;;30.02;;
54831;SDS011;40730;53.068;6.572;2023-02-15T16:50:06;42.28;;;26.13;;
54831;SDS011;40730;53.068;6.572;2023-02-15T16:53:25;42.45;;;25.58;;
54831;SDS011;40730;53.068;6.572;2023-02-15T16:56:53;48.42;;;28.17;;
54831;SDS011;40730;53.068;6.572;2023-02-15T17:00:18;45.40;;;26.42;;
54831;SDS011;40730;53.068;6.572;2023-02-15T17:03:22;46.63;;;27.75;;
54831;SDS011;40730;53.068;6.572;2023-02-15T17:06:02;48.13;;;27.75;;
54831;SDS011;40730;53.068;6.572;2023-02-15T17:09:04;47.45;;;28.00;;
54831;SDS011;40730;53.068;6.572;2023-02-15T17:12:04;45.55;;;27.70;;
54831;SDS011;40730;53.068;6.572;2023-02-15T17:15:34;48.45;;;27.08;;
54831;SDS011;40730;53.068;6.572;2023-02-15T17:18:18;49.92;;;27.80;;
54831;SDS011;40730;53.068;6.572;2023-02-15T17:20:47;45.95;;;28.23;;
54831;SDS011;40730;53.068;6.572;2023-02-15T17:23:49;41.67;;;26.85;;
54831;SDS011;40730;53.068;6.572;2023-02-15T17:26:15;46.67;;;28.77;;
54831;SDS011;40730;53.068;6.572;2023-02-15T17:28:48;46.08;;;26.75;;
54831;SDS011;40730;53.068;6.572;2023-02-15T17:31:16;47.58;;;28.00;;
54831;SDS011;40730;53.068;6.572;2023-02-15T17:33:45;46.92;;;25.98;;
54831;SDS011;40730;53.068;6.572;2023-02-15T17:36:12;46.88;;;27.38;;
54831;SDS011;40730;53.068;6.572;2023-02-15T17:41:35;45.85;;;26.98;;
54831;SDS011;40730;53.068;6.572;2023-02-15T17:44:03;42.33;;;24.85;;
54831;SDS011;40730;53.068;6.572;2023-02-15T17:46:32;44.25;;;24.50;;
54831;SDS011;40730;53.068;6.572;2023-02-15T17:49:00;51.05;;;25.80;;
54831;SDS011;40730;53.068;6.572;2023-02-15T17:51:26;53.08;;;26.88;;
54831;SDS011;40730;53.068;6.572;2023-02-15T17:53:52;49.05;;;26.38;;
54831;SDS011;40730;53.068;6.572;2023-02-15T17:56:37;46.20;;;26.55;;
54831;SDS011;40730;53.068;6.572;2023-02-15T17:59:03;45.45;;;26.80;;
54831;SDS011;40730;53.068;6.572;2023-02-15T18:01:34;51.72;;;28.65;;
54831;SDS011;40730;53.068;6.572;2023-02-15T18:04:22;44.38;;;26.52;;
54831;SDS011;40730;53.068;6.572;2023-02-15T18:07:10;47.53;;;27.00;;
54831;SDS011;40730;53.068;6.572;2023-02-15T18:09:56;47.10;;;26.88;;
54831;SDS011;40730;53.068;6.572;2023-02-15T18:12:40;48.00;;;28.02;;
54831;SDS011;40730;53.068;6.572;2023-02-15T18:15:06;46.17;;;26.17;;
54831;SDS011;40730;53.068;6.572;2023-02-15T18:20:00;48.65;;;27.98;;
54831;SDS011;40730;53.068;6.572;2023-02-15T18:22:29;52.65;;;28.25;;
54831;SDS011;40730;53.068;6.572;2023-02-15T18:24:55;42.13;;;26.65;;
54831;SDS011;40730;53.068;6.572;2023-02-15T18:27:21;44.50;;;25.50;;
54831;SDS011;40730;53.068;6.572;2023-02-15T18:29:47;52.60;;;29.15;;
54831;SDS011;40730;53.068;6.572;2023-02-15T18:32:14;53.40;;;29.08;;
54831;SDS011;40730;53.068;6.572;2023-02-15T18:34:52;53.13;;;29.90;;
54831;SDS011;40730;53.068;6.572;2023-02-15T18:37:20;50.47;;;28.17;;